This is the latest recevied weather packets stored in our database for station/object DG5MG. If no packets are shown the sender has not sent any weather packets the latest 10 day(s).
| Time | Temp. | Humidity | Pressure | Rain* | Wind** | Luminosity | Snow |
|---|---|---|---|---|---|---|---|
| 1777914605 | 22.22° C | 45% | 1015.9 hPa | 0 mm | - | 30 W/m² | - |
| 1777913105 | 22.78° C | 44% | 1015.9 hPa | 0 mm | - | 139 W/m² | - |
| 1777912205 | 23.33° C | 43% | 1015.9 hPa | 0 mm | - | 198 W/m² | - |
| 1777908305 | 24.44° C | 42% | 1015.9 hPa | 0 mm | - | 494 W/m² | - |
| 1777907406 | 24.44° C | 43% | 1016.3 hPa | 0 mm | - | 568 W/m² | - |
| 1777906505 | 23.89° C | 44% | 1016.3 hPa | 0 mm | - | 642 W/m² | - |
| 1777906205 | 23.89° C | 44% | 1016.3 hPa | 0 mm | - | 666 W/m² | - |
| 1777904106 | 23.33° C | 44% | 1016.3 hPa | 0 mm | - | 835 W/m² | - |
| 1777901405 | 24.44° C | 43% | 1016.6 hPa | 0 mm | - | 1030 W/m² | - |
| 1777899605 | 23.33° C | 44% | 1016.9 hPa | 0 mm | - | 1136 W/m² | - |
| 1777899005 | 24.44° C | 43% | 1016.9 hPa | 0 mm | - | 1166 W/m² | - |
| 1777897805 | 24.44° C | 41% | 1017.3 hPa | 0 mm | - | 1217 W/m² | - |
| 1777897206 | 25° C | 42% | 1017.3 hPa | 0 mm | - | 1238 W/m² | - |
| 1777896605 | 23.33° C | 44% | 1017.3 hPa | 0 mm | - | 1255 W/m² | - |
| 1777896005 | 24.44° C | 42% | 1017.3 hPa | 0 mm | - | 1269 W/m² | - |
| 1777894806 | 23.89° C | 42% | 1017.6 hPa | 0 mm | - | 1286 W/m² | - |
| 1777894506 | 23.89° C | 42% | 1017.6 hPa | 0 mm | - | 1288 W/m² | - |
| 1777894205 | 23.89° C | 43% | 1017.6 hPa | 0 mm | - | 1289 W/m² | - |
| 1777893006 | 23.89° C | 43% | 1017.9 hPa | 0 mm | - | 1284 W/m² | - |
| 1777891806 | 23.33° C | 43% | 1018.3 hPa | 0 mm | - | 1265 W/m² | - |
| 1777891505 | 23.89° C | 42% | 1018.3 hPa | 0 mm | - | 1258 W/m² | - |
| 1777890005 | 23.33° C | 42% | 1019 hPa | 0 mm | - | 1210 W/m² | - |
| 1777886105 | 21.11° C | 45% | 1019.3 hPa | 0 mm | - | 998 W/m² | - |
| 1777885805 | 21.11° C | 46% | 1019.3 hPa | 0 mm | - | 977 W/m² | - |
| 1777885505 | 21.11° C | 47% | 1019.3 hPa | 0 mm | - | 956 W/m² | - |
* Rain latest hour (hover to see other rain measurements)
** Current wind speed in m/s (hover to see current wind gust speed)